Time,TemperatureF,DewpointF,PressureIn,WindDirection,WindDirectionDegrees,WindSpeedMPH,WindSpeedGustMPH,Humidity,HourlyPrecipIn,Conditions,Clouds,dailyrainin,SoftwareType,DateUTC
2013-11-12 10:22:00,54.0,23.0,30.35,NE,37,4.0,6.0,29,-99.99,,,0.00,,2013-11-12 17:22:00,
2013-11-12 10:33:00,54.0,23.0,30.35,NE,37,4.0,6.0,29,-99.99,,,0.00,,2013-11-12 17:33:00,
2013-11-12 10:52:00,56.0,22.0,30.32,NE,37,2.0,6.0,27,-99.99,,,0.00,,2013-11-12 17:52:00,
2013-11-12 11:01:00,56.0,22.0,30.32,NE,37,2.0,6.0,27,-99.99,,,0.00,,2013-11-12 18:01:00,
2013-11-12 11:23:00,58.0,23.0,30.29,NE,37,2.0,7.0,26,-99.99,,,0.00,,2013-11-12 18:23:00,
2013-11-12 11:42:00,59.0,23.0,30.28,NE,37,4.0,7.0,25,-99.99,,,0.00,,2013-11-12 18:42:00,
2013-11-12 11:52:00,59.0,23.0,30.28,NE,37,4.0,6.0,25,-99.99,,,0.00,,2013-11-12 18:52:00,
2013-11-12 12:01:00,59.0,23.0,30.28,NE,37,4.0,6.0,25,-99.99,,,0.00,,2013-11-12 19:01:00,
2013-11-12 12:21:00,59.0,23.0,30.28,NE,37,1.0,6.0,25,-99.99,,,0.00,,2013-11-12 19:21:00,
2013-11-12 12:42:00,59.0,24.0,30.26,NE,42,6.0,9.0,25,-99.99,,,0.00,,2013-11-12 19:42:00,
2013-11-12 12:52:00,59.0,23.0,30.25,ENE,69,6.0,12.0,25,-99.99,,,-99.99,,2013-11-12 19:52:00,
2013-11-12 13:01:00,59.0,23.0,30.25,ENE,69,6.0,12.0,25,-99.99,,,-99.99,,2013-11-12 20:01:00,
2013-11-12 13:21:00,60.0,24.0,30.24,East,90,10.0,13.0,25,-99.99,,,-99.99,,2013-11-12 20:21:00,
2013-11-12 13:32:00,60.0,24.0,30.24,East,90,10.0,13.0,25,-99.99,,,-99.99,,2013-11-12 20:32:00,
2013-11-12 13:52:00,60.0,25.0,30.24,ENE,78,5.0,13.0,26,-99.99,,,-99.99,,2013-11-12 20:52:00,
2013-11-12 14:12:00,59.0,24.0,30.23,ENE,69,5.0,13.0,26,-99.99,,,-99.99,,2013-11-12 21:12:00,
2013-11-12 14:22:00,60.0,24.0,30.22,ENE,74,2.0,10.0,25,-99.99,,,-99.99,,2013-11-12 21:22:00,
2013-11-12 14:44:00,58.0,24.0,30.24,ENE,76,7.0,11.0,26,-99.99,,,0.00,,2013-11-12 21:44:00,
2013-11-12 14:54:00,59.0,23.0,30.27,East,82,3.0,12.0,25,-99.99,,,-99.99,,2013-11-12 21:54:00,
2013-11-12 15:04:00,59.0,23.0,30.27,East,82,3.0,12.0,25,-99.99,,,-99.99,,2013-11-12 22:04:00,
2013-11-12 15:24:00,59.0,22.0,30.27,East,84,3.0,11.0,24,-99.99,,,-99.99,,2013-11-12 22:24:00,
2013-11-12 15:33:00,59.0,22.0,30.27,East,84,3.0,11.0,24,-99.99,,,-99.99,,2013-11-12 22:33:00,
2013-11-12 15:54:00,60.0,22.0,30.26,East,79,3.0,9.0,23,-99.99,,,-99.99,,2013-11-12 22:54:00,
2013-11-12 16:03:00,60.0,22.0,30.26,East,79,3.0,9.0,23,-99.99,,,-99.99,,2013-11-12 23:03:00,
2013-11-12 16:23:00,59.0,22.0,30.26,ENE,71,1.0,10.0,23,-99.99,,,-99.99,,2013-11-12 23:23:00,
2013-11-12 16:33:00,59.0,22.0,30.26,ENE,71,1.0,10.0,23,-99.99,,,-99.99,,2013-11-12 23:33:00,
2013-11-12 16:54:00,58.0,21.0,30.27,ENE,71,1.0,5.0,24,-99.99,,,-99.99,,2013-11-12 23:54:00,
2013-11-12 17:11:00,57.0,21.0,30.29,ENE,71,0.0,5.0,25,-99.99,,,-99.99,,2013-11-13 00:11:00,
2013-11-12 17:22:00,56.0,21.0,30.29,ENE,71,2.0,2.0,26,-99.99,,,-99.99,,2013-11-13 00:22:00,
2013-11-12 17:32:00,56.0,21.0,30.29,ENE,71,2.0,2.0,26,-99.99,,,-99.99,,2013-11-13 00:32:00,
2013-11-12 17:52:00,51.0,20.0,30.33,ENE,71,2.0,3.0,29,-99.99,,,-99.99,,2013-11-13 00:52:00,
2013-11-12 18:11:00,50.0,20.0,30.35,ENE,71,3.0,4.0,30,-99.99,,,-99.99,,2013-11-13 01:11:00,
2013-11-12 18:22:00,49.0,19.0,30.36,ENE,71,2.0,4.0,30,-99.99,,,-99.99,,2013-11-13 01:22:00,
2013-11-12 18:32:00,49.0,19.0,30.36,ENE,71,2.0,4.0,30,-99.99,,,-99.99,,2013-11-13 01:32:00,
2013-11-12 18:52:00,47.0,19.0,30.37,ENE,71,0.0,2.0,32,-99.99,,,-99.99,,2013-11-13 01:52:00,
2013-11-12 19:11:00,47.0,19.0,30.39,ENE,71,1.0,4.0,33,-99.99,,,-99.99,,2013-11-13 02:11:00,
2013-11-12 19:22:00,46.0,19.0,30.39,ENE,71,0.0,2.0,34,-99.99,,,-99.99,,2013-11-13 02:22:00,
2013-11-12 19:42:00,45.0,19.0,30.39,ENE,71,0.0,3.0,34,-99.99,,,-99.99,,2013-11-13 02:42:00,
2013-11-12 19:52:00,45.0,19.0,30.33,ENE,71,0.0,3.0,35,-99.99,,,-99.99,,2013-11-13 02:52:00,
2013-11-12 20:11:00,44.0,18.0,30.34,ENE,71,0.0,3.0,35,-99.99,,,-99.99,,2013-11-13 03:11:00,
2013-11-12 20:22:00,43.0,18.0,30.34,ENE,71,0.0,2.0,36,-99.99,,,-99.99,,2013-11-13 03:22:00,
2013-11-12 20:34:00,43.0,18.0,30.34,ENE,71,0.0,2.0,36,-99.99,,,-99.99,,2013-11-13 03:34:00,
2013-11-12 20:54:00,42.0,17.0,30.27,ENE,71,0.0,3.0,36,-99.99,,,-99.99,,2013-11-13 03:54:00,
2013-11-12 21:04:00,42.0,17.0,30.27,ENE,71,0.0,3.0,36,-99.99,,,-99.99,,2013-11-13 04:04:00,
2013-11-12 21:23:00,41.0,17.0,30.27,ENE,71,0.0,2.0,38,-99.99,,,-99.99,,2013-11-13 04:23:00,
2013-11-12 21:34:00,41.0,17.0,30.27,ENE,71,0.0,2.0,38,-99.99,,,-99.99,,2013-11-13 04:34:00,
2013-11-12 21:53:00,41.0,17.0,30.27,ENE,71,0.0,2.0,38,-99.99,,,-99.99,,2013-11-13 04:53:00,
2013-11-12 22:03:00,41.0,17.0,30.27,ENE,71,0.0,2.0,38,-99.99,,,-99.99,,2013-11-13 05:03:00,
2013-11-12 22:23:00,40.0,18.0,30.30,ENE,71,3.0,4.0,40,-99.99,,,-99.99,,2013-11-13 05:23:00,
2013-11-12 22:33:00,40.0,18.0,30.30,ENE,71,3.0,4.0,40,-99.99,,,-99.99,,2013-11-13 05:33:00,
2013-11-12 22:53:00,40.0,18.0,30.27,ENE,71,0.0,2.0,41,-99.99,,,-99.99,,2013-11-13 05:53:00,
2013-11-12 23:03:00,40.0,18.0,30.27,ENE,71,0.0,2.0,41,-99.99,,,-99.99,,2013-11-13 06:03:00,
2013-11-12 23:42:00,41.0,17.0,30.24,ENE,71,0.0,6.0,38,-99.99,,,-99.99,,2013-11-13 06:42:00,
2013-11-12 23:52:00,40.0,18.0,30.24,ENE,71,0.0,0.0,41,-99.99,,,-99.99,,2013-11-13 06:52:00,